sensor_id;sensor_type;location;lat;lon;timestamp;temperature;humidity
52965;DHT22;42923;53.220;6.528;2022-12-07T00:01:14;3.30;99.90
52965;DHT22;42923;53.220;6.528;2022-12-07T00:03:42;3.30;99.90
52965;DHT22;42923;53.220;6.528;2022-12-07T00:06:10;3.40;99.90
52965;DHT22;42923;53.220;6.528;2022-12-07T00:08:36;3.50;99.90
52965;DHT22;42923;53.220;6.528;2022-12-07T00:11:11;3.60;99.90
52965;DHT22;42923;53.220;6.528;2022-12-07T00:13:38;3.70;99.90
52965;DHT22;42923;53.220;6.528;2022-12-07T00:16:10;3.80;99.90
52965;DHT22;42923;53.220;6.528;2022-12-07T00:18:36;3.70;99.90
52965;DHT22;42923;53.220;6.528;2022-12-07T00:21:05;3.70;99.90
52965;DHT22;42923;53.220;6.528;2022-12-07T00:23:32;3.60;99.90
52965;DHT22;42923;53.220;6.528;2022-12-07T00:26:04;3.50;99.90
52965;DHT22;42923;53.220;6.528;2022-12-07T00:28:30;3.40;99.90
52965;DHT22;42923;53.220;6.528;2022-12-07T00:31:10;3.40;99.90
52965;DHT22;42923;53.220;6.528;2022-12-07T00:33:37;3.30;99.90
52965;DHT22;42923;53.220;6.528;2022-12-07T00:36:06;3.20;99.90
52965;DHT22;42923;53.220;6.528;2022-12-07T00:38:33;3.20;99.90
52965;DHT22;42923;53.220;6.528;2022-12-07T00:41:05;3.20;99.90
52965;DHT22;42923;53.220;6.528;2022-12-07T00:43:31;3.10;99.90
52965;DHT22;42923;53.220;6.528;2022-12-07T00:45:57;3.10;99.90
52965;DHT22;42923;53.220;6.528;2022-12-07T00:48:24;3.20;99.90
52965;DHT22;42923;53.220;6.528;2022-12-07T00:50:50;3.30;99.90
52965;DHT22;42923;53.220;6.528;2022-12-07T00:53:16;3.30;99.90
52965;DHT22;42923;53.220;6.528;2022-12-07T00:55:42;3.40;99.90
52965;DHT22;42923;53.220;6.528;2022-12-07T00:58:08;3.50;99.90
52965;DHT22;42923;53.220;6.528;2022-12-07T01:00:39;3.80;99.90
52965;DHT22;42923;53.220;6.528;2022-12-07T01:03:07;3.90;99.90
52965;DHT22;42923;53.220;6.528;2022-12-07T01:05:33;4.00;99.90
52965;DHT22;42923;53.220;6.528;2022-12-07T01:07:59;4.50;99.90
52965;DHT22;42923;53.220;6.528;2022-12-07T01:10:25;4.10;99.90
52965;DHT22;42923;53.220;6.528;2022-12-07T01:12:51;4.20;99.90
52965;DHT22;42923;53.220;6.528;2022-12-07T01:15:16;4.20;99.90
52965;DHT22;42923;53.220;6.528;2022-12-07T01:17:42;4.20;99.90
52965;DHT22;42923;53.220;6.528;2022-12-07T01:20:08;4.20;99.90
52965;DHT22;42923;53.220;6.528;2022-12-07T01:22:38;4.10;99.90
52965;DHT22;42923;53.220;6.528;2022-12-07T01:25:05;4.20;99.90
52965;DHT22;42923;53.220;6.528;2022-12-07T01:27:32;4.20;99.90
52965;DHT22;42923;53.220;6.528;2022-12-07T01:29:58;4.10;99.90
52965;DHT22;42923;53.220;6.528;2022-12-07T01:32:24;4.10;99.90
52965;DHT22;42923;53.220;6.528;2022-12-07T01:34:50;4.10;99.90
52965;DHT22;42923;53.220;6.528;2022-12-07T01:37:15;4.20;99.90
52965;DHT22;42923;53.220;6.528;2022-12-07T01:39:41;4.50;99.90
52965;DHT22;42923;53.220;6.528;2022-12-07T01:42:11;4.20;99.90
52965;DHT22;42923;53.220;6.528;2022-12-07T01:47:42;4.10;99.90
52965;DHT22;42923;53.220;6.528;2022-12-07T01:50:08;4.50;99.90
52965;DHT22;42923;53.220;6.528;2022-12-07T01:52:36;4.10;99.90
52965;DHT22;42923;53.220;6.528;2022-12-07T01:55:07;4.10;99.90
52965;DHT22;42923;53.220;6.528;2022-12-07T01:57:37;4.00;99.90
52965;DHT22;42923;53.220;6.528;2022-12-07T02:00:07;4.00;99.90
52965;DHT22;42923;53.220;6.528;2022-12-07T02:02:46;3.90;99.90
52965;DHT22;42923;53.220;6.528;2022-12-07T02:05:13;4.40;99.90
52965;DHT22;42923;53.220;6.528;2022-12-07T02:07:39;3.80;99.90
52965;DHT22;42923;53.220;6.528;2022-12-07T02:10:19;3.70;99.90
52965;DHT22;42923;53.220;6.528;2022-12-07T02:12:48;3.60;99.90
52965;DHT22;42923;53.220;6.528;2022-12-07T02:15:16;3.60;99.90
52965;DHT22;42923;53.220;6.528;2022-12-07T02:18:00;3.50;99.90
52965;DHT22;42923;53.220;6.528;2022-12-07T02:20:33;3.40;99.90
52965;DHT22;42923;53.220;6.528;2022-12-07T02:28:35;3.20;99.90
52965;DHT22;42923;53.220;6.528;2022-12-07T02:31:18;3.20;99.90
52965;DHT22;42923;53.220;6.528;2022-12-07T02:34:00;3.20;99.90
52965;DHT22;42923;53.220;6.528;2022-12-07T02:36:37;3.20;99.90
52965;DHT22;42923;53.220;6.528;2022-12-07T02:39:11;3.20;99.90
52965;DHT22;42923;53.220;6.528;2022-12-07T02:41:43;3.30;99.90
52965;DHT22;42923;53.220;6.528;2022-12-07T02:44:12;4.20;99.90
52965;DHT22;42923;53.220;6.528;2022-12-07T02:47:01;3.70;99.90
52965;DHT22;42923;53.220;6.528;2022-12-07T02:49:35;3.80;99.90
52965;DHT22;42923;53.220;6.528;2022-12-07T02:52:02;3.90;99.90
52965;DHT22;42923;53.220;6.528;2022-12-07T02:54:28;3.90;99.90
52965;DHT22;42923;53.220;6.528;2022-12-07T03:00:04;3.90;99.90
52965;DHT22;42923;53.220;6.528;2022-12-07T03:05:33;3.80;99.90
52965;DHT22;42923;53.220;6.528;2022-12-07T03:11:00;3.80;99.90
52965;DHT22;42923;53.220;6.528;2022-12-07T03:16:25;3.70;99.90
52965;DHT22;42923;53.220;6.528;2022-12-07T03:19:16;3.60;99.90
52965;DHT22;42923;53.220;6.528;2022-12-07T03:21:46;3.60;99.90
52965;DHT22;42923;53.220;6.528;2022-12-07T03:24:15;3.70;99.90
52965;DHT22;42923;53.220;6.528;2022-12-07T03:26:47;3.70;99.90
52965;DHT22;42923;53.220;6.528;2022-12-07T03:29:20;3.90;99.90
52965;DHT22;42923;53.220;6.528;2022-12-07T03:31:54;3.90;99.90
52965;DHT22;42923;53.220;6.528;2022-12-07T03:34:30;3.90;99.90
52965;DHT22;42923;53.220;6.528;2022-12-07T03:37:15;3.90;99.90
52965;DHT22;42923;53.220;6.528;2022-12-07T03:42:28;3.80;99.90
52965;DHT22;42923;53.220;6.528;2022-12-07T03:44:54;3.80;99.90
52965;DHT22;42923;53.220;6.528;2022-12-07T03:50:21;3.80;99.90
52965;DHT22;42923;53.220;6.528;2022-12-07T03:52:58;3.80;99.90
52965;DHT22;42923;53.220;6.528;2022-12-07T03:55:35;3.90;99.90
52965;DHT22;42923;53.220;6.528;2022-12-07T03:58:06;3.90;99.90
52965;DHT22;42923;53.220;6.528;2022-12-07T04:00:33;3.90;99.90
52965;DHT22;42923;53.220;6.528;2022-12-07T04:02:58;3.80;99.90
52965;DHT22;42923;53.220;6.528;2022-12-07T04:05:25;3.80;99.90
52965;DHT22;42923;53.220;6.528;2022-12-07T04:07:50;3.80;99.90
52965;DHT22;42923;53.220;6.528;2022-12-07T04:10:16;3.70;99.90
52965;DHT22;42923;53.220;6.528;2022-12-07T04:12:42;3.70;99.90
52965;DHT22;42923;53.220;6.528;2022-12-07T04:15:09;3.70;99.90
52965;DHT22;42923;53.220;6.528;2022-12-07T04:17:35;3.60;99.90
52965;DHT22;42923;53.220;6.528;2022-12-07T04:20:01;3.60;99.90
52965;DHT22;42923;53.220;6.528;2022-12-07T04:22:26;3.50;99.90
52965;DHT22;42923;53.220;6.528;2022-12-07T04:24:52;3.50;99.90
52965;DHT22;42923;53.220;6.528;2022-12-07T04:27:18;3.40;99.90
52965;DHT22;42923;53.220;6.528;2022-12-07T04:29:43;3.20;99.90
52965;DHT22;42923;53.220;6.528;2022-12-07T04:32:09;3.10;99.90
52965;DHT22;42923;53.220;6.528;2022-12-07T04:34:35;3.00;99.90
52965;DHT22;42923;53.220;6.528;2022-12-07T04:37:01;2.90;99.90
52965;DHT22;42923;53.220;6.528;2022-12-07T04:39:31;2.80;99.90
52965;DHT22;42923;53.220;6.528;2022-12-07T04:41:58;2.80;99.90
52965;DHT22;42923;53.220;6.528;2022-12-07T04:44:25;2.90;99.90
52965;DHT22;42923;53.220;6.528;2022-12-07T04:46:51;3.00;99.90
52965;DHT22;42923;53.220;6.528;2022-12-07T04:49:18;3.10;99.90
52965;DHT22;42923;53.220;6.528;2022-12-07T04:51:43;3.20;99.90
52965;DHT22;42923;53.220;6.528;2022-12-07T04:54:10;3.20;99.90
52965;DHT22;42923;53.220;6.528;2022-12-07T04:56:35;3.20;99.90
52965;DHT22;42923;53.220;6.528;2022-12-07T04:59:02;3.20;99.90
52965;DHT22;42923;53.220;6.528;2022-12-07T05:01:28;3.10;99.90
52965;DHT22;42923;53.220;6.528;2022-12-07T05:03:54;3.10;99.90
52965;DHT22;42923;53.220;6.528;2022-12-07T05:06:19;3.00;99.90
52965;DHT22;42923;53.220;6.528;2022-12-07T05:08:46;2.90;99.90
52965;DHT22;42923;53.220;6.528;2022-12-07T05:11:12;2.80;99.90
52965;DHT22;42923;53.220;6.528;2022-12-07T05:13:58;2.80;99.90
52965;DHT22;42923;53.220;6.528;2022-12-07T05:16:24;2.60;99.90
52965;DHT22;42923;53.220;6.528;2022-12-07T05:18:50;2.50;99.90
52965;DHT22;42923;53.220;6.528;2022-12-07T05:21:15;2.30;99.90
52965;DHT22;42923;53.220;6.528;2022-12-07T05:23:41;2.20;99.90
52965;DHT22;42923;53.220;6.528;2022-12-07T05:26:07;2.00;99.90
52965;DHT22;42923;53.220;6.528;2022-12-07T05:28:33;1.90;99.90
52965;DHT22;42923;53.220;6.528;2022-12-07T05:30:58;1.70;99.90
52965;DHT22;42923;53.220;6.528;2022-12-07T05:33:24;1.60;99.90
52965;DHT22;42923;53.220;6.528;2022-12-07T05:35:50;1.50;99.90
52965;DHT22;42923;53.220;6.528;2022-12-07T05:38:15;1.40;99.90
52965;DHT22;42923;53.220;6.528;2022-12-07T05:40:41;1.30;99.90
52965;DHT22;42923;53.220;6.528;2022-12-07T05:43:07;1.20;99.90
52965;DHT22;42923;53.220;6.528;2022-12-07T05:45:33;1.20;99.90
52965;DHT22;42923;53.220;6.528;2022-12-07T05:47:58;1.20;99.90
52965;DHT22;42923;53.220;6.528;2022-12-07T05:50:24;1.20;99.90
52965;DHT22;42923;53.220;6.528;2022-12-07T05:52:59;1.20;99.90
52965;DHT22;42923;53.220;6.528;2022-12-07T05:55:25;1.20;99.90
52965;DHT22;42923;53.220;6.528;2022-12-07T05:57:51;1.10;99.90
52965;DHT22;42923;53.220;6.528;2022-12-07T06:00:35;1.20;99.90
52965;DHT22;42923;53.220;6.528;2022-12-07T06:03:01;1.10;99.90
52965;DHT22;42923;53.220;6.528;2022-12-07T06:05:27;1.20;99.90
52965;DHT22;42923;53.220;6.528;2022-12-07T06:07:52;1.20;99.90
52965;DHT22;42923;53.220;6.528;2022-12-07T06:10:18;1.30;99.90
52965;DHT22;42923;53.220;6.528;2022-12-07T06:12:44;1.50;99.90
52965;DHT22;42923;53.220;6.528;2022-12-07T06:15:12;1.70;99.90
52965;DHT22;42923;53.220;6.528;2022-12-07T06:17:38;1.90;99.90
52965;DHT22;42923;53.220;6.528;2022-12-07T06:20:05;2.10;99.90
52965;DHT22;42923;53.220;6.528;2022-12-07T06:22:31;2.20;99.90
52965;DHT22;42923;53.220;6.528;2022-12-07T06:24:57;2.30;99.90
52965;DHT22;42923;53.220;6.528;2022-12-07T06:27:22;2.30;99.90
52965;DHT22;42923;53.220;6.528;2022-12-07T06:29:48;2.30;99.90
52965;DHT22;42923;53.220;6.528;2022-12-07T06:32:14;2.30;99.90
52965;DHT22;42923;53.220;6.528;2022-12-07T06:34:40;2.30;99.90
52965;DHT22;42923;53.220;6.528;2022-12-07T06:37:05;2.20;99.90
52965;DHT22;42923;53.220;6.528;2022-12-07T06:39:31;2.50;99.90
52965;DHT22;42923;53.220;6.528;2022-12-07T06:41:57;2.00;99.90
52965;DHT22;42923;53.220;6.528;2022-12-07T06:44:24;1.90;99.90
52965;DHT22;42923;53.220;6.528;2022-12-07T06:46:50;1.80;99.90
52965;DHT22;42923;53.220;6.528;2022-12-07T06:49:16;1.70;99.90
52965;DHT22;42923;53.220;6.528;2022-12-07T06:51:43;1.60;99.90
52965;DHT22;42923;53.220;6.528;2022-12-07T06:54:10;1.50;99.90
52965;DHT22;42923;53.220;6.528;2022-12-07T06:56:37;1.30;99.90
52965;DHT22;42923;53.220;6.528;2022-12-07T06:59:04;1.20;99.90
52965;DHT22;42923;53.220;6.528;2022-12-07T07:01:32;1.20;99.90
52965;DHT22;42923;53.220;6.528;2022-12-07T07:03:58;1.20;99.90
52965;DHT22;42923;53.220;6.528;2022-12-07T07:06:24;1.30;99.90
52965;DHT22;42923;53.220;6.528;2022-12-07T07:08:49;1.50;99.90
52965;DHT22;42923;53.220;6.528;2022-12-07T07:11:15;1.70;99.90
52965;DHT22;42923;53.220;6.528;2022-12-07T07:13:41;1.90;99.90
52965;DHT22;42923;53.220;6.528;2022-12-07T07:16:07;2.10;99.90
52965;DHT22;42923;53.220;6.528;2022-12-07T07:18:33;2.20;99.90
52965;DHT22;42923;53.220;6.528;2022-12-07T07:20:59;2.30;99.90
52965;DHT22;42923;53.220;6.528;2022-12-07T07:23:25;2.40;99.90
52965;DHT22;42923;53.220;6.528;2022-12-07T07:25:50;2.50;99.90
52965;DHT22;42923;53.220;6.528;2022-12-07T07:28:16;2.50;99.90
52965;DHT22;42923;53.220;6.528;2022-12-07T07:30:42;2.50;99.90
52965;DHT22;42923;53.220;6.528;2022-12-07T07:33:09;2.50;99.90
52965;DHT22;42923;53.220;6.528;2022-12-07T07:35:35;2.40;99.90
52965;DHT22;42923;53.220;6.528;2022-12-07T07:38:01;2.40;99.90
52965;DHT22;42923;53.220;6.528;2022-12-07T07:40:28;2.60;99.90
52965;DHT22;42923;53.220;6.528;2022-12-07T07:42:57;2.20;99.90
52965;DHT22;42923;53.220;6.528;2022-12-07T07:45:25;2.10;99.90
52965;DHT22;42923;53.220;6.528;2022-12-07T07:47:51;2.00;99.90
52965;DHT22;42923;53.220;6.528;2022-12-07T07:50:17;1.80;99.90
52965;DHT22;42923;53.220;6.528;2022-12-07T07:52:44;1.70;99.90
52965;DHT22;42923;53.220;6.528;2022-12-07T07:55:10;1.60;99.90
52965;DHT22;42923;53.220;6.528;2022-12-07T07:57:36;1.60;99.90
52965;DHT22;42923;53.220;6.528;2022-12-07T08:00:09;1.50;99.90
52965;DHT22;42923;53.220;6.528;2022-12-07T08:02:38;1.50;99.90
52965;DHT22;42923;53.220;6.528;2022-12-07T08:05:04;1.50;99.90
52965;DHT22;42923;53.220;6.528;2022-12-07T08:07:30;1.50;99.90
52965;DHT22;42923;53.220;6.528;2022-12-07T08:09:56;1.50;99.90
52965;DHT22;42923;53.220;6.528;2022-12-07T08:12:21;1.50;99.90
52965;DHT22;42923;53.220;6.528;2022-12-07T08:14:47;2.00;99.90
52965;DHT22;42923;53.220;6.528;2022-12-07T08:17:13;1.50;99.90
52965;DHT22;42923;53.220;6.528;2022-12-07T08:19:38;1.50;99.90
52965;DHT22;42923;53.220;6.528;2022-12-07T08:22:04;1.50;99.90
52965;DHT22;42923;53.220;6.528;2022-12-07T08:24:33;1.60;99.90
52965;DHT22;42923;53.220;6.528;2022-12-07T08:26:59;1.60;99.90
52965;DHT22;42923;53.220;6.528;2022-12-07T08:29:24;2.10;99.90
52965;DHT22;42923;53.220;6.528;2022-12-07T08:31:50;1.70;99.90
52965;DHT22;42923;53.220;6.528;2022-12-07T08:34:16;1.80;99.90
52965;DHT22;42923;53.220;6.528;2022-12-07T08:36:42;2.00;99.90
52965;DHT22;42923;53.220;6.528;2022-12-07T08:39:07;2.20;99.90
52965;DHT22;42923;53.220;6.528;2022-12-07T08:41:33;2.40;99.90
52965;DHT22;42923;53.220;6.528;2022-12-07T08:43:59;2.90;99.90
52965;DHT22;42923;53.220;6.528;2022-12-07T08:46:35;2.60;99.90
52965;DHT22;42923;53.220;6.528;2022-12-07T08:49:23;2.80;99.90
52965;DHT22;42923;53.220;6.528;2022-12-07T08:51:50;2.90;99.90
52965;DHT22;42923;53.220;6.528;2022-12-07T08:54:17;2.90;99.90
52965;DHT22;42923;53.220;6.528;2022-12-07T08:56:44;3.00;99.90
52965;DHT22;42923;53.220;6.528;2022-12-07T08:59:12;3.10;99.90
52965;DHT22;42923;53.220;6.528;2022-12-07T09:01:40;3.20;99.90
52965;DHT22;42923;53.220;6.528;2022-12-07T09:04:05;3.30;99.90
52965;DHT22;42923;53.220;6.528;2022-12-07T09:06:31;3.40;99.90
52965;DHT22;42923;53.220;6.528;2022-12-07T09:08:59;3.60;99.90
52965;DHT22;42923;53.220;6.528;2022-12-07T09:11:26;3.70;99.90
52965;DHT22;42923;53.220;6.528;2022-12-07T09:13:52;3.70;99.90
52965;DHT22;42923;53.220;6.528;2022-12-07T09:16:17;4.30;99.90
52965;DHT22;42923;53.220;6.528;2022-12-07T09:18:43;3.90;99.90
52965;DHT22;42923;53.220;6.528;2022-12-07T09:21:09;4.10;99.90
52965;DHT22;42923;53.220;6.528;2022-12-07T09:23:35;4.30;99.90
52965;DHT22;42923;53.220;6.528;2022-12-07T09:26:02;4.40;99.90
52965;DHT22;42923;53.220;6.528;2022-12-07T09:28:28;4.70;99.90
52965;DHT22;42923;53.220;6.528;2022-12-07T09:30:55;4.80;99.90
52965;DHT22;42923;53.220;6.528;2022-12-07T09:33:21;4.80;99.90
52965;DHT22;42923;53.220;6.528;2022-12-07T09:35:48;4.90;99.90
52965;DHT22;42923;53.220;6.528;2022-12-07T09:38:14;4.90;99.90
52965;DHT22;42923;53.220;6.528;2022-12-07T09:40:41;4.90;99.90
52965;DHT22;42923;53.220;6.528;2022-12-07T09:43:15;4.90;99.90
52965;DHT22;42923;53.220;6.528;2022-12-07T09:45:41;4.90;99.90
52965;DHT22;42923;53.220;6.528;2022-12-07T09:48:18;5.10;99.90
52965;DHT22;42923;53.220;6.528;2022-12-07T09:50:46;4.90;99.90
52965;DHT22;42923;53.220;6.528;2022-12-07T09:53:24;4.90;99.90
52965;DHT22;42923;53.220;6.528;2022-12-07T09:55:51;5.00;99.90
52965;DHT22;42923;53.220;6.528;2022-12-07T09:58:29;5.00;99.90
52965;DHT22;42923;53.220;6.528;2022-12-07T10:01:09;4.90;99.90
52965;DHT22;42923;53.220;6.528;2022-12-07T10:03:38;4.90;99.90
52965;DHT22;42923;53.220;6.528;2022-12-07T10:06:05;4.90;99.90
52965;DHT22;42923;53.220;6.528;2022-12-07T10:08:32;4.90;99.90
52965;DHT22;42923;53.220;6.528;2022-12-07T10:10:59;5.10;99.90
52965;DHT22;42923;53.220;6.528;2022-12-07T10:13:46;5.40;99.90
52965;DHT22;42923;53.220;6.528;2022-12-07T10:16:41;5.30;99.90
52965;DHT22;42923;53.220;6.528;2022-12-07T10:21:58;5.50;99.90
52965;DHT22;42923;53.220;6.528;2022-12-07T10:24:24;5.70;99.90
52965;DHT22;42923;53.220;6.528;2022-12-07T10:26:52;5.60;99.90
52965;DHT22;42923;53.220;6.528;2022-12-07T10:29:32;5.80;99.90
52965;DHT22;42923;53.220;6.528;2022-12-07T10:32:21;5.90;99.90
52965;DHT22;42923;53.220;6.528;2022-12-07T10:34:48;6.10;99.90
52965;DHT22;42923;53.220;6.528;2022-12-07T10:37:15;6.50;99.90
52965;DHT22;42923;53.220;6.528;2022-12-07T10:39:48;7.10;99.90
52965;DHT22;42923;53.220;6.528;2022-12-07T10:42:21;7.80;99.90
52965;DHT22;42923;53.220;6.528;2022-12-07T10:45:13;8.60;99.90
52965;DHT22;42923;53.220;6.528;2022-12-07T10:47:51;9.10;99.90
52965;DHT22;42923;53.220;6.528;2022-12-07T10:58:26;8.30;99.90
52965;DHT22;42923;53.220;6.528;2022-12-07T11:01:25;8.00;99.90
52965;DHT22;42923;53.220;6.528;2022-12-07T11:07:21;7.40;99.90
52965;DHT22;42923;53.220;6.528;2022-12-07T11:09:57;6.80;99.90
52965;DHT22;42923;53.220;6.528;2022-12-07T11:18:14;5.90;99.90
52965;DHT22;42923;53.220;6.528;2022-12-07T11:20:58;5.70;99.90
52965;DHT22;42923;53.220;6.528;2022-12-07T11:29:28;5.30;99.90
52965;DHT22;42923;53.220;6.528;2022-12-07T11:32:04;5.40;99.90
52965;DHT22;42923;53.220;6.528;2022-12-07T11:37:34;5.70;99.90
52965;DHT22;42923;53.220;6.528;2022-12-07T11:40:48;5.80;99.90
52965;DHT22;42923;53.220;6.528;2022-12-07T11:43:04;6.00;99.90
52965;DHT22;42923;53.220;6.528;2022-12-07T11:45:35;6.20;99.90
52965;DHT22;42923;53.220;6.528;2022-12-07T11:48:22;6.40;99.90
52965;DHT22;42923;53.220;6.528;2022-12-07T11:50:52;6.60;99.90
52965;DHT22;42923;53.220;6.528;2022-12-07T11:53:25;6.60;99.90
52965;DHT22;42923;53.220;6.528;2022-12-07T12:06:43;6.70;99.90
52965;DHT22;42923;53.220;6.528;2022-12-07T12:11:43;6.60;99.90
52965;DHT22;42923;53.220;6.528;2022-12-07T12:20:13;6.10;99.90
52965;DHT22;42923;53.220;6.528;2022-12-07T12:22:48;6.10;99.90
52965;DHT22;42923;53.220;6.528;2022-12-07T12:25:27;5.90;99.90
52965;DHT22;42923;53.220;6.528;2022-12-07T12:27:56;5.90;99.90
52965;DHT22;42923;53.220;6.528;2022-12-07T12:30:38;5.80;99.90
52965;DHT22;42923;53.220;6.528;2022-12-07T12:33:19;5.80;99.90
52965;DHT22;42923;53.220;6.528;2022-12-07T12:54:37;6.10;99.90
52965;DHT22;42923;53.220;6.528;2022-12-07T13:02:35;5.40;99.90
52965;DHT22;42923;53.220;6.528;2022-12-07T13:15:48;4.70;99.90
52965;DHT22;42923;53.220;6.528;2022-12-07T13:34:30;4.60;99.90
52965;DHT22;42923;53.220;6.528;2022-12-07T13:36:56;4.60;99.90
52965;DHT22;42923;53.220;6.528;2022-12-07T13:39:24;4.50;99.90
52965;DHT22;42923;53.220;6.528;2022-12-07T13:41:55;4.40;99.90
52965;DHT22;42923;53.220;6.528;2022-12-07T13:44:23;4.20;99.90
52965;DHT22;42923;53.220;6.528;2022-12-07T13:49:32;3.80;99.90
52965;DHT22;42923;53.220;6.528;2022-12-07T13:55:17;3.50;99.90
52965;DHT22;42923;53.220;6.528;2022-12-07T13:57:36;3.40;99.90
52965;DHT22;42923;53.220;6.528;2022-12-07T14:00:17;3.30;99.90
52965;DHT22;42923;53.220;6.528;2022-12-07T14:05:39;3.10;99.90
52965;DHT22;42923;53.220;6.528;2022-12-07T14:08:22;3.10;99.90
52965;DHT22;42923;53.220;6.528;2022-12-07T14:13:36;3.00;99.90
52965;DHT22;42923;53.220;6.528;2022-12-07T14:16:31;3.30;99.90
52965;DHT22;42923;53.220;6.528;2022-12-07T14:19:00;2.90;99.90
52965;DHT22;42923;53.220;6.528;2022-12-07T14:21:29;3.00;99.90
52965;DHT22;42923;53.220;6.528;2022-12-07T14:24:17;3.00;99.90
52965;DHT22;42923;53.220;6.528;2022-12-07T14:26:45;3.00;99.90
52965;DHT22;42923;53.220;6.528;2022-12-07T14:31:54;3.10;99.90
52965;DHT22;42923;53.220;6.528;2022-12-07T14:34:21;3.10;99.90
52965;DHT22;42923;53.220;6.528;2022-12-07T14:36:47;3.20;99.90
52965;DHT22;42923;53.220;6.528;2022-12-07T14:39:13;3.20;99.90
52965;DHT22;42923;53.220;6.528;2022-12-07T14:41:39;3.20;99.90
52965;DHT22;42923;53.220;6.528;2022-12-07T14:44:18;3.30;99.90
52965;DHT22;42923;53.220;6.528;2022-12-07T14:46:45;3.30;99.90
52965;DHT22;42923;53.220;6.528;2022-12-07T14:49:11;3.30;99.90
52965;DHT22;42923;53.220;6.528;2022-12-07T14:51:39;3.40;99.90
52965;DHT22;42923;53.220;6.528;2022-12-07T14:54:06;3.40;99.90
52965;DHT22;42923;53.220;6.528;2022-12-07T14:56:36;3.30;99.90
52965;DHT22;42923;53.220;6.528;2022-12-07T14:59:02;3.50;99.90
52965;DHT22;42923;53.220;6.528;2022-12-07T15:01:28;3.30;99.90
52965;DHT22;42923;53.220;6.528;2022-12-07T15:03:54;3.20;99.90
52965;DHT22;42923;53.220;6.528;2022-12-07T15:06:19;3.20;99.90
52965;DHT22;42923;53.220;6.528;2022-12-07T15:08:45;3.20;99.90
52965;DHT22;42923;53.220;6.528;2022-12-07T15:11:13;3.10;99.90
52965;DHT22;42923;53.220;6.528;2022-12-07T15:13:39;3.00;99.90
52965;DHT22;42923;53.220;6.528;2022-12-07T15:16:23;2.90;99.90
52965;DHT22;42923;53.220;6.528;2022-12-07T15:19:58;4.20;99.90
52965;DHT22;42923;53.220;6.528;2022-12-07T15:22:24;2.70;99.90
52965;DHT22;42923;53.220;6.528;2022-12-07T15:24:49;2.70;99.90
52965;DHT22;42923;53.220;6.528;2022-12-07T15:27:15;2.70;99.90
52965;DHT22;42923;53.220;6.528;2022-12-07T15:29:41;2.60;99.90
52965;DHT22;42923;53.220;6.528;2022-12-07T15:32:06;3.20;99.90
52965;DHT22;42923;53.220;6.528;2022-12-07T15:34:32;2.60;99.90
52965;DHT22;42923;53.220;6.528;2022-12-07T15:36:58;2.60;99.90
52965;DHT22;42923;53.220;6.528;2022-12-07T15:39:23;2.60;99.90
52965;DHT22;42923;53.220;6.528;2022-12-07T15:41:50;2.60;99.90
52965;DHT22;42923;53.220;6.528;2022-12-07T15:44:15;2.60;99.90
52965;DHT22;42923;53.220;6.528;2022-12-07T15:47:00;2.60;99.90
52965;DHT22;42923;53.220;6.528;2022-12-07T15:49:26;2.60;99.90
52965;DHT22;42923;53.220;6.528;2022-12-07T15:51:53;2.70;99.90
52965;DHT22;42923;53.220;6.528;2022-12-07T15:54:24;2.60;99.90
52965;DHT22;42923;53.220;6.528;2022-12-07T15:56:50;2.60;99.90
52965;DHT22;42923;53.220;6.528;2022-12-07T15:59:16;2.60;99.90
52965;DHT22;42923;53.220;6.528;2022-12-07T16:01:42;2.60;99.90
52965;DHT22;42923;53.220;6.528;2022-12-07T16:04:08;2.60;99.90
52965;DHT22;42923;53.220;6.528;2022-12-07T16:06:34;2.60;99.90
52965;DHT22;42923;53.220;6.528;2022-12-07T16:09:00;2.60;99.90
52965;DHT22;42923;53.220;6.528;2022-12-07T16:11:26;2.60;99.90
52965;DHT22;42923;53.220;6.528;2022-12-07T16:13:52;2.60;99.90
52965;DHT22;42923;53.220;6.528;2022-12-07T16:16:19;2.60;99.90
52965;DHT22;42923;53.220;6.528;2022-12-07T16:18:46;2.60;99.90
52965;DHT22;42923;53.220;6.528;2022-12-07T16:21:13;2.70;99.90
52965;DHT22;42923;53.220;6.528;2022-12-07T16:23:39;2.70;99.90
52965;DHT22;42923;53.220;6.528;2022-12-07T16:26:14;3.60;99.90
52965;DHT22;42923;53.220;6.528;2022-12-07T16:28:40;2.70;99.90
52965;DHT22;42923;53.220;6.528;2022-12-07T16:31:12;2.80;99.90
52965;DHT22;42923;53.220;6.528;2022-12-07T16:33:39;2.70;99.90
52965;DHT22;42923;53.220;6.528;2022-12-07T16:36:07;2.70;99.90
52965;DHT22;42923;53.220;6.528;2022-12-07T16:38:33;2.70;99.90
52965;DHT22;42923;53.220;6.528;2022-12-07T16:40:59;2.60;99.90
52965;DHT22;42923;53.220;6.528;2022-12-07T16:43:25;2.60;99.90
52965;DHT22;42923;53.220;6.528;2022-12-07T16:45:51;2.50;99.90
52965;DHT22;42923;53.220;6.528;2022-12-07T16:48:17;2.50;99.90
52965;DHT22;42923;53.220;6.528;2022-12-07T16:50:43;2.50;99.90
52965;DHT22;42923;53.220;6.528;2022-12-07T16:53:10;2.50;99.90
52965;DHT22;42923;53.220;6.528;2022-12-07T16:55:38;2.60;99.90
52965;DHT22;42923;53.220;6.528;2022-12-07T16:58:04;2.50;99.90
52965;DHT22;42923;53.220;6.528;2022-12-07T17:00:30;2.50;99.90
52965;DHT22;42923;53.220;6.528;2022-12-07T17:02:55;2.60;99.90
52965;DHT22;42923;53.220;6.528;2022-12-07T17:05:21;2.90;99.90
52965;DHT22;42923;53.220;6.528;2022-12-07T17:07:47;2.60;99.90
52965;DHT22;42923;53.220;6.528;2022-12-07T17:10:12;2.50;99.90
52965;DHT22;42923;53.220;6.528;2022-12-07T17:12:38;2.50;99.90
52965;DHT22;42923;53.220;6.528;2022-12-07T17:15:04;2.50;99.90
52965;DHT22;42923;53.220;6.528;2022-12-07T17:17:50;2.50;99.90
52965;DHT22;42923;53.220;6.528;2022-12-07T17:20:16;2.40;99.90
52965;DHT22;42923;53.220;6.528;2022-12-07T17:22:44;2.40;99.90
52965;DHT22;42923;53.220;6.528;2022-12-07T17:25:10;2.40;99.90
52965;DHT22;42923;53.220;6.528;2022-12-07T17:27:37;2.40;99.90
52965;DHT22;42923;53.220;6.528;2022-12-07T17:30:04;2.40;99.90
52965;DHT22;42923;53.220;6.528;2022-12-07T17:32:30;2.40;99.90
52965;DHT22;42923;53.220;6.528;2022-12-07T17:34:56;2.50;99.90
52965;DHT22;42923;53.220;6.528;2022-12-07T17:37:21;2.50;99.90
52965;DHT22;42923;53.220;6.528;2022-12-07T17:39:47;2.50;99.90
52965;DHT22;42923;53.220;6.528;2022-12-07T17:42:13;2.80;99.90
52965;DHT22;42923;53.220;6.528;2022-12-07T17:44:58;2.60;99.90
52965;DHT22;42923;53.220;6.528;2022-12-07T17:47:23;2.60;99.90
52965;DHT22;42923;53.220;6.528;2022-12-07T17:49:49;2.60;99.90
52965;DHT22;42923;53.220;6.528;2022-12-07T17:52:15;2.60;99.90
52965;DHT22;42923;53.220;6.528;2022-12-07T17:54:59;2.60;99.90
52965;DHT22;42923;53.220;6.528;2022-12-07T17:57:25;2.70;99.90
52965;DHT22;42923;53.220;6.528;2022-12-07T17:59:51;2.60;99.90
52965;DHT22;42923;53.220;6.528;2022-12-07T18:02:17;2.60;99.90
52965;DHT22;42923;53.220;6.528;2022-12-07T18:04:43;2.60;99.90
52965;DHT22;42923;53.220;6.528;2022-12-07T18:07:10;2.60;99.90
52965;DHT22;42923;53.220;6.528;2022-12-07T18:09:36;2.80;99.90
52965;DHT22;42923;53.220;6.528;2022-12-07T18:12:02;2.50;99.90
52965;DHT22;42923;53.220;6.528;2022-12-07T18:14:28;2.50;99.90
52965;DHT22;42923;53.220;6.528;2022-12-07T18:16:54;2.50;99.90